Time;durP1;ratioP1;P1;durP2;ratioP2;P2;SDS_P1;SDS_P2;PMS_P1;PMS_P2;Temp;Humidity;BMP_temperature;BMP_pressure;BME280_temperature;BME280_humidity;BME280_pressure;Samples;Min_cycle;Max_cycle;Signal;HPM_P1;HPM_P2
2022/08/15 00:01:36;;;;;;;9.40;7.57;;;;;;;19.75;100.00;100006.22;4969444;28;20046;-78
2022/08/15 00:04:10;;;;;;;8.82;8.00;;;;;;;19.70;100.00;99986.06;4990856;28;20030;-78
2022/08/15 00:06:57;;;;;;;8.68;7.88;;;;;;;19.64;100.00;99988.19;4977039;28;20475;-79
2022/08/15 00:09:24;;;;;;;9.13;8.23;;;;;;;19.62;100.00;99984.78;4973083;28;20049;-78
2022/08/15 00:12:11;;;;;;;8.75;7.95;;;;;;;19.56;100.00;99992.34;4987916;28;20125;-79
2022/08/15 00:14:58;;;;;;;10.02;7.95;;;;;;;19.55;100.00;99987.94;4989656;28;20121;-79
2022/08/15 00:17:25;;;;;;;9.48;8.43;;;;;;;19.51;100.00;99979.28;4990102;28;20054;-78
2022/08/15 00:20:16;;;;;;;9.43;8.35;;;;;;;19.44;100.00;99990.50;5008637;28;20054;-79
2022/08/15 00:22:57;;;;;;;12.25;8.55;;;;;;;19.44;100.00;99982.47;4987445;28;20043;-79
2022/08/15 00:25:26;;;;;;;8.35;7.63;;;;;;;19.39;100.00;99985.44;4991769;28;20038;-78
2022/08/15 00:27:53;;;;;;;9.50;8.52;;;;;;;19.37;100.00;99982.03;4989509;28;20054;-78
2022/08/15 00:30:21;;;;;;;8.85;8.05;;;;;;;19.33;100.00;99981.34;4991254;28;20057;-79
2022/08/15 00:32:55;;;;;;;9.43;8.48;;;;;;;19.32;100.00;99994.84;5006349;28;20038;-79
2022/08/15 00:35:46;;;;;;;11.48;9.73;;;;;;;19.29;100.00;99989.72;4989867;28;20042;-79
2022/08/15 00:38:30;;;;;;;10.52;9.00;;;;;;;19.28;100.00;99993.34;4987462;28;20082;-78
2022/08/15 00:44:19;;;;;;;11.65;9.48;;;;;;;19.23;100.00;99998.16;4977762;28;20092;-78
2022/08/15 00:47:19;;;;;;;10.82;9.73;;;;;;;19.18;100.00;99998.47;4983958;28;20070;-78
2022/08/15 00:49:48;;;;;;;10.77;9.63;;;;;;;19.13;100.00;100001.44;4987422;28;20133;-78
2022/08/15 00:52:31;;;;;;;10.95;9.35;;;;;;;19.09;100.00;99999.94;4976525;28;20132;-77
2022/08/15 00:55:11;;;;;;;9.73;8.63;;;;;;;19.07;100.00;100007.19;4985599;28;20110;-79
2022/08/15 00:57:44;;;;;;;11.32;10.18;;;;;;;19.04;100.00;99999.38;5014334;28;20039;-79
2022/08/15 01:00:34;;;;;;;11.43;10.25;;;;;;;19.04;100.00;99994.03;5009150;28;20106;-78
2022/08/15 01:03:15;;;;;;;10.70;9.67;;;;;;;19.02;100.00;99992.41;4972265;28;20047;-79
2022/08/15 01:05:47;;;;;;;11.55;10.38;;;;;;;18.98;100.00;99997.09;4994704;28;20042;-78
2022/08/15 01:08:23;;;;;;;11.93;10.23;;;;;;;18.94;100.00;100000.09;4994359;28;20105;-79
2022/08/15 01:11:03;;;;;;;;;;;;;;;18.92;100.00;99997.53;4955651;28;20042;-78
2022/08/15 01:13:35;;;;;;;12.40;9.75;;;;;;;18.85;100.00;100001.56;4977053;28;20363;-78
2022/08/15 01:16:24;;;;;;;11.55;10.35;;;;;;;18.80;100.00;100003.66;4985446;28;20089;-78
2022/08/15 01:19:06;;;;;;;10.88;9.77;;;;;;;18.76;100.00;99989.63;4988734;28;20511;-78
2022/08/15 01:22:02;;;;;;;10.88;9.77;;;;;;;18.70;100.00;99992.69;4970571;28;20039;-78
2022/08/15 01:24:56;;;;;;;11.63;9.55;;;;;;;18.70;100.00;99984.66;4976383;28;20042;-78
2022/08/15 01:27:49;;;;;;;12.50;10.63;;;;;;;18.68;100.00;99993.75;4987559;28;20038;-78
2022/08/15 01:30:21;;;;;;;11.13;9.93;;;;;;;18.62;100.00;99994.13;4987673;28;20086;-77
2022/08/15 01:33:08;;;;;;;12.85;11.13;;;;;;;18.60;100.00;99988.00;4973125;28;20050;-78
2022/08/15 01:35:36;;;;;;;10.90;9.80;;;;;;;18.57;100.00;99987.22;4999645;28;20046;-78
2022/08/15 01:38:40;;;;;;;12.80;10.45;;;;;;;18.52;100.00;99986.69;5000814;28;20508;-78
2022/08/15 01:41:32;;;;;;;10.93;9.82;;;;;;;18.48;100.00;99990.50;4972699;28;20495;-78
2022/08/15 01:44:13;;;;;;;14.20;10.65;;;;;;;18.48;100.00;99994.97;4974263;28;20046;-78
2022/08/15 01:47:24;;;;;;;11.30;10.10;;;;;;;18.48;100.00;100003.00;4982406;28;20057;-79
2022/08/15 01:50:08;;;;;;;12.67;10.50;;;;;;;18.46;100.00;99986.19;4998846;28;20078;-78
2022/08/15 01:52:50;;;;;;;12.88;10.50;;;;;;;18.43;100.00;99994.44;4977791;28;20509;-78
2022/08/15 01:56:09;;;;;;;12.07;10.82;;;;;;;18.41;100.00;99981.13;4986301;28;20045;-78
2022/08/15 01:58:57;;;;;;;12.52;10.93;;;;;;;18.39;100.00;99988.41;4970759;28;21046;-78
2022/08/15 02:01:51;;;;;;;14.52;11.10;;;;;;;18.40;100.00;99987.44;4968938;28;20042;-78
2022/08/15 02:04:33;;;;;;;14.77;12.00;;;;;;;18.37;100.00;99987.66;4987558;28;20109;-78
2022/08/15 02:07:06;;;;;;;16.90;12.40;;;;;;;18.36;100.00;99983.25;4987655;28;20471;-77
2022/08/15 02:09:33;;;;;;;13.82;10.88;;;;;;;18.40;100.00;99978.56;4969199;28;20085;-77
2022/08/15 02:12:25;;;;;;;14.10;10.50;;;;;;;18.32;100.00;99976.38;4987820;28;20038;-78
2022/08/15 02:15:15;;;;;;;14.23;11.65;;;;;;;18.28;100.00;99967.69;4983874;28;20049;-78
2022/08/15 02:17:42;;;;;;;12.55;11.25;;;;;;;18.26;100.00;99976.78;4982472;28;20034;-77
2022/08/15 02:20:16;;;;;;;12.63;11.32;;;;;;;18.25;100.00;99973.25;4988641;28;20053;-77
2022/08/15 02:22:51;;;;;;;13.00;11.48;;;;;;;18.22;100.00;99969.88;4988655;28;20042;-78
2022/08/15 02:25:18;;;;;;;14.90;12.25;;;;;;;18.25;100.00;99972.41;4990509;28;20038;-78
2022/08/15 02:27:53;;;;;;;13.30;11.88;;;;;;;18.24;100.00;99971.53;4986602;28;20069;-78
2022/08/15 02:30:25;;;;;;;13.40;11.55;;;;;;;18.24;100.00;99968.88;4973322;28;20050;-78
2022/08/15 02:32:58;;;;;;;13.80;11.75;;;;;;;18.22;100.00;99956.53;4986803;28;20050;-78
2022/08/15 02:35:26;;;;;;;14.25;12.32;;;;;;;18.23;100.00;99961.78;4972498;28;20074;-78
2022/08/15 02:37:55;;;;;;;13.85;12.30;;;;;;;18.26;100.00;99968.75;4987052;28;20097;-78
2022/08/15 02:40:25;;;;;;;14.73;12.38;;;;;;;18.22;100.00;99965.41;4974567;28;20038;-78
2022/08/15 02:43:13;;;;;;;17.52;12.35;;;;;;;18.20;100.00;99969.13;4982616;28;20045;-78
2022/08/15 02:45:47;;;;;;;21.30;13.38;;;;;;;18.23;100.00;99971.59;4984840;28;20097;-78
2022/08/15 02:48:34;;;;;;;18.73;12.98;;;;;;;18.21;100.00;99969.03;4990885;28;20046;-78
2022/08/15 02:51:08;;;;;;;14.93;12.13;;;;;;;18.28;100.00;99966.84;4986928;28;20073;-78
2022/08/15 02:53:43;;;;;;;14.02;12.50;;;;;;;18.32;100.00;99965.69;4987666;28;20411;-77
2022/08/15 02:56:14;;;;;;;16.95;12.35;;;;;;;18.36;100.00;99961.88;4984190;28;20038;-78
2022/08/15 02:58:42;;;;;;;15.02;12.68;;;;;;;18.28;100.00;99967.69;4954066;28;20482;-78
2022/08/15 03:01:09;;;;;;;16.52;13.05;;;;;;;18.31;100.00;99957.75;4970936;28;20046;-78
2022/08/15 03:03:43;;;;;;;21.17;13.70;;;;;;;18.29;100.00;99955.19;4995675;28;20129;-78
2022/08/15 03:06:12;;;;;;;20.02;12.98;;;;;;;18.26;100.00;99964.28;4989576;28;20092;-78
2022/08/15 03:08:42;;;;;;;16.10;12.75;;;;;;;18.26;100.00;99955.38;4989344;28;20053;-78
2022/08/15 03:11:12;;;;;;;16.00;12.32;;;;;;;18.23;100.00;99961.78;5005750;28;20077;-78
2022/08/15 03:13:40;;;;;;;16.35;13.20;;;;;;;18.21;100.00;99961.00;4980419;28;20053;-78
2022/08/15 03:16:09;;;;;;;18.63;13.90;;;;;;;18.22;100.00;99965.41;4987789;28;20114;-78
2022/08/15 03:18:46;;;;;;;19.00;13.18;;;;;;;18.20;100.00;99966.47;4992190;28;20065;-78
2022/08/15 03:21:19;;;;;;;16.05;12.98;;;;;;;18.14;100.00;99959.69;5008181;28;20042;-78
2022/08/15 03:23:51;;;;;;;21.23;14.02;;;;;;;18.14;100.00;99956.16;4976468;28;20046;-78
2022/08/15 03:26:22;;;;;;;20.17;13.00;;;;;;;18.11;100.00;99949.19;4993204;28;20038;-78
2022/08/15 03:29:08;;;;;;;19.70;13.85;;;;;;;18.11;100.00;99938.50;4967211;28;20073;-78
2022/08/15 03:31:43;;;;;;;23.77;14.55;;;;;;;18.14;100.00;99932.94;5006052;28;20538;-78
2022/08/15 03:34:12;;;;;;;22.02;14.75;;;;;;;18.08;100.00;99935.16;4992788;28;20035;-78
2022/08/15 03:36:45;;;;;;;22.88;14.15;;;;;;;18.04;100.00;99933.63;5001090;28;20480;-78
2022/08/15 03:39:19;;;;;;;22.55;14.55;;;;;;;17.98;100.00;99940.22;4988203;28;20038;-78
2022/08/15 03:41:46;;;;;;;18.75;14.18;;;;;;;17.95;100.00;99938.59;5002293;28;20038;-78
2022/08/15 03:44:22;;;;;;;20.25;14.27;;;;;;;17.94;100.00;99934.22;5003184;28;20062;-78
2022/08/15 03:46:56;;;;;;;20.67;13.32;;;;;;;17.92;100.00;99933.44;4969785;28;20070;-78
2022/08/15 03:49:24;;;;;;;18.52;14.02;;;;;;;17.91;100.00;99937.09;4982515;28;20041;-78
2022/08/15 03:52:10;;;;;;;17.83;14.20;;;;;;;17.87;100.00;99937.34;5000938;28;20046;-77
2022/08/15 03:54:37;;;;;;;18.27;14.23;;;;;;;17.86;100.00;99941.84;4990037;28;20050;-78
2022/08/15 03:57:05;;;;;;;17.77;14.18;;;;;;;17.87;100.00;99932.00;4987506;28;20117;-78
2022/08/15 03:59:33;;;;;;;15.60;13.52;;;;;;;17.86;100.00;99939.16;4981061;28;20562;-78
2022/08/15 04:02:10;;;;;;;17.23;13.27;;;;;;;17.85;100.00;99933.94;4966632;28;20049;-78
2022/08/15 04:04:37;;;;;;;18.83;14.02;;;;;;;17.80;100.00;99939.53;4969835;28;20042;-77
2022/08/15 04:07:07;;;;;;;20.42;14.82;;;;;;;17.80;100.00;99936.88;4985756;28;20034;-77
2022/08/15 04:09:49;;;;;;;43.03;18.20;;;;;;;17.84;100.00;99942.91;4983380;28;20052;-78
2022/08/15 04:12:32;;;;;;;41.60;18.30;;;;;;;17.82;100.00;99939.44;5002987;28;20058;-77
2022/08/15 04:15:09;;;;;;;43.03;18.23;;;;;;;17.81;100.00;99943.94;5055459;23;20038;-78
2022/08/15 04:17:42;;;;;;;28.23;16.55;;;;;;;17.80;100.00;99939.53;4982313;28;20513;-78
2022/08/15 04:20:24;;;;;;;29.15;16.52;;;;;;;17.82;100.00;99947.47;4976697;28;20074;-77
2022/08/15 04:22:58;;;;;;;25.85;15.77;;;;;;;17.81;100.00;99946.59;4984907;28;20706;-77
2022/08/15 04:25:30;;;;;;;25.55;15.88;;;;;;;17.84;100.00;99941.09;5004471;28;20046;-78
2022/08/15 04:28:19;;;;;;;30.02;15.07;;;;;;;17.87;100.00;99935.53;4974059;28;20062;-78
2022/08/15 04:31:08;;;;;;;24.30;15.93;;;;;;;17.90;100.00;99935.34;4996389;28;20053;-78
2022/08/15 04:33:39;;;;;;;20.45;15.32;;;;;;;17.93;100.00;99932.50;5004623;28;20042;-78
2022/08/15 04:36:25;;;;;;;16.27;13.55;;;;;;;17.97;100.00;99931.34;4972859;28;20042;-79
2022/08/15 04:38:59;;;;;;;;;;;;;;;18.02;100.00;99928.38;4988889;28;20042;-79
2022/08/15 04:41:31;;;;;;;20.25;14.50;;;;;;;18.08;100.00;99936.03;5000593;28;19984;-79
2022/08/15 04:44:07;;;;;;;21.05;13.70;;;;;;;18.17;100.00;99930.09;4989229;28;20045;-79
2022/08/15 04:46:44;;;;;;;21.95;13.50;;;;;;;18.26;100.00;99929.50;5005733;28;20054;-78
2022/08/15 04:49:12;;;;;;;19.25;14.63;;;;;;;18.39;100.00;99926.88;4988391;28;20053;-80
2022/08/15 04:51:43;;;;;;;18.80;13.43;;;;;;;18.46;100.00;99917.53;4976236;28;20034;-79
2022/08/15 04:54:09;;;;;;;17.73;14.38;;;;;;;18.56;100.00;99918.63;5006603;28;20080;-79
2022/08/15 04:56:38;;;;;;;17.25;13.00;;;;;;;18.64;100.00;99919.94;4975832;28;20066;-79
2022/08/15 04:59:18;;;;;;;18.73;14.25;;;;;;;18.76;100.00;99924.53;5007139;28;20038;-79
2022/08/15 05:02:05;;;;;;;15.40;13.07;;;;;;;18.90;100.00;99921.78;4989913;28;20554;-79
2022/08/15 05:04:52;;;;;;;16.73;13.15;;;;;;;19.06;100.00;99919.81;5003202;28;20046;-79
2022/08/15 05:07:19;;;;;;;17.30;12.63;;;;;;;19.23;100.00;99920.50;5006806;28;20043;-79
2022/08/15 05:09:52;;;;;;;15.80;13.20;;;;;;;19.36;100.00;99911.53;5005858;28;20050;-79
2022/08/15 05:12:29;;;;;;;15.60;13.25;;;;;;;19.54;100.00;99909.38;4973324;28;20039;-77
2022/08/15 05:15:01;;;;;;;17.52;13.05;;;;;;;19.74;100.00;99908.00;4987211;28;20042;-78
2022/08/15 05:17:28;;;;;;;18.15;14.48;;;;;;;19.99;100.00;99903.59;4969779;28;20042;-79
2022/08/15 05:20:17;;;;;;;17.65;13.13;;;;;;;20.14;100.00;99906.03;4996345;28;20054;-77
2022/08/15 05:23:01;;;;;;;19.35;13.35;;;;;;;20.35;100.00;99903.66;5003162;28;20053;-77
2022/08/15 05:25:30;;;;;;;17.52;14.18;;;;;;;20.61;100.00;99896.38;5003563;28;20404;-78
2022/08/15 05:27:58;;;;;;;15.40;13.23;;;;;;;20.83;100.00;99892.94;4984221;28;20042;-78
2022/08/15 05:30:25;;;;;;;15.80;12.88;;;;;;;21.16;100.00;99897.59;4968828;28;20474;-76
2022/08/15 05:33:06;;;;;;;13.95;12.35;;;;;;;21.45;100.00;99894.53;4986082;28;20038;-77
2022/08/15 05:35:41;;;;;;;12.45;11.10;;;;;;;21.59;100.00;99888.91;5005221;28;20030;-78
2022/08/15 05:38:17;;;;;;;15.88;12.43;;;;;;;21.85;100.00;99893.09;4989130;28;20581;-77
2022/08/15 05:41:14;;;;;;;13.73;11.90;;;;;;;21.98;100.00;99890.28;5003303;28;20096;-77
2022/08/15 05:44:01;;;;;;;14.98;13.23;;;;;;;22.09;100.00;99892.16;4974349;28;20053;-77
2022/08/15 05:47:19;;;;;;;14.05;12.55;;;;;;;22.16;100.00;99885.28;4997687;28;20034;-77
2022/08/15 05:50:13;;;;;;;15.15;12.98;;;;;;;22.26;100.00;99899.72;4993796;28;20519;-77
2022/08/15 05:52:49;;;;;;;14.43;12.02;;;;;;;22.39;99.08;99895.06;5004087;28;20122;-78
2022/08/15 05:55:45;;;;;;;14.70;12.15;;;;;;;22.70;96.22;99885.31;4988652;28;20157;-77
2022/08/15 05:58:28;;;;;;;15.30;12.43;;;;;;;23.15;91.77;99882.44;4990056;28;20050;-77
2022/08/15 06:01:14;;;;;;;13.27;11.85;;;;;;;24.15;86.39;99882.75;4984255;28;20050;-77
2022/08/15 06:04:24;;;;;;;13.85;12.40;;;;;;;25.01;79.44;99883.03;5014358;28;20546;-78
2022/08/15 06:06:57;;;;;;;15.30;13.10;;;;;;;25.18;77.38;99891.31;4993789;28;20038;-77
2022/08/15 06:09:39;;;;;;;13.73;12.00;;;;;;;24.68;79.36;99888.69;4978297;28;20042;-77
2022/08/15 06:12:15;;;;;;;13.30;11.95;;;;;;;24.40;81.56;99890.38;5024104;28;20049;-78
2022/08/15 06:14:55;;;;;;;104.30;21.65;;;;;;;24.39;82.03;99885.97;4971570;28;20103;-77
2022/08/15 06:17:37;;;;;;;15.45;11.98;;;;;;;24.50;82.28;99886.84;4987359;28;20042;-77
2022/08/15 06:20:07;;;;;;;14.40;12.85;;;;;;;24.54;80.70;99893.66;4993885;28;20046;-77
2022/08/15 06:22:59;;;;;;;14.52;11.35;;;;;;;25.16;77.74;99897.88;5005736;28;20492;-77
2022/08/15 06:25:38;;;;;;;13.35;11.95;;;;;;;26.10;72.96;99887.97;4976129;28;20050;-77
2022/08/15 06:28:39;;;;;;;12.15;10.90;;;;;;;27.40;66.45;99896.63;4998989;28;20057;-78
2022/08/15 06:31:30;;;;;;;12.93;11.43;;;;;;;28.09;62.45;99892.19;5010272;28;20046;-77
2022/08/15 06:34:30;;;;;;;15.18;11.82;;;;;;;28.21;61.04;99889.00;5009031;28;20497;-77
2022/08/15 06:37:42;;;;;;;12.95;11.65;;;;;;;28.53;59.19;99888.28;5008754;28;20035;-77
2022/08/15 06:40:39;;;;;;;13.38;11.85;;;;;;;28.72;59.00;99895.28;5005303;28;20038;-77
2022/08/15 06:43:09;;;;;;;12.43;11.13;;;;;;;28.48;59.65;99893.34;5000328;28;20042;-78
2022/08/15 06:45:38;;;;;;;13.18;11.10;;;;;;;28.50;59.32;99893.19;4988674;28;20046;-77
2022/08/15 06:48:19;;;;;;;12.13;10.88;;;;;;;28.23;59.75;99891.53;4995591;28;20039;-78
2022/08/15 06:51:07;;;;;;;14.68;11.57;;;;;;;27.84;62.62;99891.19;4989526;28;20042;-77
2022/08/15 06:53:51;;;;;;;12.95;11.65;;;;;;;27.60;61.99;99894.56;4997963;28;20048;-77
2022/08/15 06:56:37;;;;;;;12.30;10.88;;;;;;;27.78;62.35;99900.81;4990971;28;20077;-77
2022/08/15 06:59:26;;;;;;;13.60;12.23;;;;;;;27.93;61.48;99893.78;4994949;28;20071;-77
2022/08/15 07:02:09;;;;;;;13.85;12.45;;;;;;;28.19;60.34;99887.47;4972407;28;20101;-77
2022/08/15 07:05:18;;;;;;;12.75;10.93;;;;;;;28.43;60.80;99890.31;4994818;28;20400;-77
2022/08/15 07:08:17;;;;;;;14.18;11.63;;;;;;;28.65;59.29;99887.97;5000776;28;20038;-77
2022/08/15 07:10:55;;;;;;;13.13;11.80;;;;;;;28.79;58.17;99873.72;5011401;28;20050;-77
2022/08/15 07:13:29;;;;;;;13.48;12.10;;;;;;;28.63;59.30;99882.72;4977727;28;20046;-77
2022/08/15 07:16:01;;;;;;;12.55;11.35;;;;;;;28.52;59.37;99881.16;5006093;28;20042;-77
2022/08/15 07:18:39;;;;;;;12.40;11.18;;;;;;;28.90;58.39;99873.44;4994922;28;20140;-77
2022/08/15 07:25:33;;;;;;;12.63;10.75;;;;;;;28.52;57.99;99875.72;4994291;28;20069;-78
2022/08/15 07:28:05;;;;;;;12.23;10.95;;;;;;;28.67;58.51;99875.06;4984746;28;20070;-78
2022/08/15 07:30:47;;;;;;;11.90;9.40;;;;;;;29.07;57.84;99882.44;4972793;28;20042;-79
2022/08/15 07:33:27;;;;;;;11.02;10.02;;;;;;;29.05;56.12;99879.06;5001090;28;20121;-79
2022/08/15 07:36:15;;;;;;;13.30;9.60;;;;;;;29.09;56.24;99883.13;5012876;28;20141;-78
2022/08/15 07:39:00;;;;;;;9.98;8.98;;;;;;;28.69;56.50;99884.78;4993717;28;20051;-78
2022/08/15 07:41:30;;;;;;;11.93;9.45;;;;;;;28.53;58.84;99882.00;4997544;28;20980;-78
2022/08/15 07:44:18;;;;;;;9.60;8.60;;;;;;;28.60;58.49;99880.34;4995275;28;20522;-77
2022/08/15 07:47:02;;;;;;;10.82;8.90;;;;;;;28.53;58.67;99880.13;4994078;28;20122;-77
2022/08/15 07:49:33;;;;;;;11.15;9.15;;;;;;;29.06;56.33;99881.59;4980008;28;20069;-76
2022/08/15 07:52:20;;;;;;;9.60;8.63;;;;;;;28.55;56.94;99888.97;5017743;28;20040;-77
2022/08/15 07:55:16;;;;;;;10.30;8.63;;;;;;;28.26;57.85;99883.94;4995808;28;20041;-77
2022/08/15 07:58:12;;;;;;;9.48;8.52;;;;;;;27.88;58.94;99887.13;4993352;28;20058;-77
2022/08/15 08:00:53;;;;;;;8.85;7.97;;;;;;;27.73;60.14;99876.88;5001242;28;20537;-77
2022/08/15 08:03:45;;;;;;;9.38;8.48;;;;;;;27.74;59.86;99878.56;4979988;28;20041;-77
2022/08/15 08:06:30;;;;;;;9.73;8.70;;;;;;;27.39;61.45;99884.91;5006864;28;20053;-77
2022/08/15 08:09:29;;;;;;;9.98;8.20;;;;;;;27.24;62.29;99891.06;5006343;28;20079;-77
2022/08/15 08:12:28;;;;;;;9.40;8.52;;;;;;;27.18;62.02;99898.00;5014296;28;20041;-77
2022/08/15 08:15:28;;;;;;;10.32;8.88;;;;;;;26.90;62.72;99892.59;4994179;28;20404;-76
2022/08/15 08:18:47;;;;;;;9.23;8.30;;;;;;;27.23;62.12;99882.06;4989668;28;20110;-77
2022/08/15 08:21:18;;;;;;;13.10;8.82;;;;;;;26.76;63.96;99887.75;5003775;28;20040;-77
2022/08/15 08:24:01;;;;;;;11.27;9.05;;;;;;;26.70;65.39;99885.63;5009521;28;20035;-77
2022/08/15 08:26:46;;;;;;;10.25;9.18;;;;;;;26.46;65.51;99877.25;4992079;28;20334;-77
2022/08/15 08:29:45;;;;;;;10.07;8.45;;;;;;;26.20;67.71;99874.38;5015479;28;20045;-77
2022/08/15 08:32:41;;;;;;;9.65;8.65;;;;;;;26.55;65.58;99876.31;4997179;28;20148;-77
2022/08/15 08:35:31;;;;;;;9.82;8.93;;;;;;;26.89;64.06;99874.63;4984078;28;20046;-77
2022/08/15 08:38:04;;;;;;;9.40;8.38;;;;;;;27.08;62.17;99868.25;4970846;28;20492;-77
2022/08/15 08:41:28;;;;;;;8.45;7.65;;;;;;;27.33;61.24;99865.75;4999992;28;20121;-77
2022/08/15 08:44:06;;;;;;;9.80;8.73;;;;;;;27.77;60.59;99864.69;4998990;28;20044;-77
2022/08/15 08:47:03;;;;;;;9.95;8.95;;;;;;;27.42;60.95;99870.22;4988714;28;20121;-78
2022/08/15 08:50:08;;;;;;;9.82;8.48;;;;;;;27.82;58.82;99880.47;4990152;28;20062;-77
2022/08/15 08:52:58;;;;;;;;;;;;;;;28.14;56.97;99873.50;4990689;28;20043;-77
2022/08/15 08:55:48;;;;;;;9.32;8.13;;;;;;;28.23;57.51;99858.94;4991233;28;19923;-77
2022/08/15 08:58:41;;;;;;;10.55;8.23;;;;;;;28.90;55.44;99856.28;4991366;28;20046;-77
2022/08/15 09:01:12;;;;;;;;;;;;;;;29.12;53.33;99866.50;4998504;28;20062;-78
2022/08/15 09:03:46;;;;;;;26.70;9.60;;;;;;;29.44;52.74;99858.31;4987285;28;19922;-78
2022/08/15 09:06:21;;;;;;;8.88;8.02;;;;;;;29.17;53.17;99867.66;4987271;28;20042;-78
2022/08/15 09:09:00;;;;;;;511.30;81.90;;;;;;;28.92;53.68;99859.66;5006863;28;20057;-77
2022/08/15 09:11:35;;;;;;;11.25;8.57;;;;;;;28.94;54.00;99850.34;5002917;28;20042;-77
2022/08/15 09:14:34;;;;;;;9.20;8.30;;;;;;;29.26;52.89;99851.31;4989419;28;20567;-77
2022/08/15 09:17:21;;;;;;;9.57;8.68;;;;;;;28.93;53.99;99847.78;4976070;28;20038;-77
2022/08/15 09:20:14;;;;;;;8.70;7.82;;;;;;;28.96;54.33;99840.13;5006417;28;20131;-77
2022/08/15 09:22:47;;;;;;;8.23;7.43;;;;;;;29.26;53.23;99833.16;5007996;28;20036;-78
2022/08/15 09:25:18;;;;;;;9.50;8.23;;;;;;;29.04;52.83;99829.25;5005313;28;20045;-79
2022/08/15 09:28:04;;;;;;;7.95;7.25;;;;;;;29.55;52.53;99832.63;5005707;28;20069;-79
2022/08/15 09:30:52;;;;;;;9.85;7.95;;;;;;;30.07;51.33;99831.25;4987104;28;20097;-79
2022/08/15 09:33:40;;;;;;;19.40;8.60;;;;;;;29.77;52.21;99835.63;4977616;28;20046;-78
2022/08/15 09:36:23;;;;;;;16.25;9.25;;;;;;;30.05;50.75;99833.31;4981679;28;20403;-80
2022/08/15 09:39:10;;;;;;;8.32;7.50;;;;;;;29.67;50.87;99827.66;4989422;28;20043;-78
2022/08/15 09:42:03;;;;;;;8.27;7.43;;;;;;;29.28;52.34;99822.94;4990520;28;20042;-80
2022/08/15 09:45:22;;;;;;;8.23;7.38;;;;;;;29.58;50.41;99821.38;5005187;28;20099;-77
2022/08/15 09:48:31;;;;;;;8.45;7.65;;;;;;;29.70;49.73;99825.44;4986976;28;20061;-79
2022/08/15 09:51:28;;;;;;;7.82;7.13;;;;;;;29.51;50.87;99825.81;4981900;28;20419;-79
2022/08/15 09:54:07;;;;;;;8.25;7.40;;;;;;;30.11;49.63;99827.19;5002789;28;20046;-77
2022/08/15 09:57:28;;;;;;;8.68;7.80;;;;;;;29.60;49.26;99816.63;4989158;28;20541;-78
2022/08/15 10:00:15;;;;;;;7.85;7.15;;;;;;;30.25;48.69;99818.25;4989585;28;20117;-78
2022/08/15 10:02:52;;;;;;;7.47;6.32;;;;;;;30.53;48.64;99818.59;5006461;28;20112;-78
2022/08/15 10:05:41;;;;;;;7.18;6.47;;;;;;;30.11;49.24;99808.97;4989861;28;20089;-78
2022/08/15 10:08:08;;;;;;;8.05;7.25;;;;;;;30.12;48.37;99802.50;4982640;28;20031;-79
2022/08/15 10:10:53;;;;;;;8.55;7.28;;;;;;;30.60;46.73;99808.66;4989476;28;20070;-78
2022/08/15 10:13:26;;;;;;;7.78;6.55;;;;;;;30.77;46.77;99799.38;4984198;28;20034;-78
2022/08/15 10:15:56;;;;;;;7.57;6.82;;;;;;;31.32;45.14;99792.75;5003933;28;20260;-77
2022/08/15 10:18:23;;;;;;;8.00;6.78;;;;;;;30.94;44.91;99796.50;5052756;23;20046;-79
2022/08/15 10:20:53;;;;;;;371.58;60.08;;;;;;;30.47;46.46;99790.19;4987619;28;20087;-78
2022/08/15 10:23:50;;;;;;;8.75;7.25;;;;;;;30.20;47.78;99793.44;4989088;28;20555;-78
2022/08/15 10:26:29;;;;;;;7.25;6.55;;;;;;;29.69;49.67;99787.50;4971629;28;20057;-78
2022/08/15 10:29:00;;;;;;;7.30;6.55;;;;;;;29.67;49.89;99786.81;5002316;28;20034;-77
2022/08/15 10:31:29;;;;;;;7.30;6.18;;;;;;;29.71;49.89;99788.16;4974448;28;20050;-77
2022/08/15 10:34:28;;;;;;;28.10;8.10;;;;;;;29.90;48.40;99781.44;4993922;28;20030;-77
2022/08/15 10:37:15;;;;;;;6.80;6.20;;;;;;;30.08;47.95;99779.34;4990602;28;20047;-77
2022/08/15 10:40:27;;;;;;;9.65;6.45;;;;;;;30.47;46.81;99770.25;4986718;28;20042;-78
2022/08/15 10:43:15;;;;;;;18.83;7.78;;;;;;;30.27;46.91;99772.63;5001863;28;20046;-78
2022/08/15 10:45:48;;;;;;;7.13;5.82;;;;;;;29.80;47.57;99772.66;4983846;28;20038;-78
2022/08/15 10:48:58;;;;;;;24.40;8.55;;;;;;;29.90;48.00;99770.56;4992776;28;20038;-80
2022/08/15 10:51:46;;;;;;;6.00;5.38;;;;;;;29.73;46.08;99768.94;4997147;28;20042;-78
2022/08/15 10:54:31;;;;;;;5.65;5.15;;;;;;;29.81;46.51;99761.56;4989485;28;20058;-78
2022/08/15 10:57:09;;;;;;;34.17;8.60;;;;;;;30.45;45.37;99761.41;4990397;28;20048;-78
2022/08/15 10:59:40;;;;;;;5.88;5.18;;;;;;;30.45;45.06;99753.25;5001942;28;20037;-79
2022/08/15 11:02:21;;;;;;;6.60;5.25;;;;;;;30.62;44.67;99757.53;4987652;28;20046;-77
2022/08/15 11:05:10;;;;;;;6.82;5.50;;;;;;;30.44;44.67;99759.72;4994815;28;20060;-77
2022/08/15 11:07:47;;;;;;;5.85;5.25;;;;;;;30.00;45.81;99760.28;4980895;28;20043;-78
2022/08/15 11:10:28;;;;;;;10.45;5.72;;;;;;;29.91;46.75;99754.03;4989381;28;20058;-78
2022/08/15 11:13:05;;;;;;;6.53;5.47;;;;;;;30.52;45.62;99744.16;4990355;28;20407;-78
2022/08/15 11:15:54;;;;;;;6.25;5.35;;;;;;;30.76;44.10;99748.56;5012334;28;20038;-78
2022/08/15 11:18:33;;;;;;;5.80;5.28;;;;;;;30.87;43.70;99747.31;5001898;28;20053;-77
2022/08/15 11:21:14;;;;;;;7.00;5.82;;;;;;;31.47;42.97;99742.78;4996753;28;20061;-78
2022/08/15 11:23:41;;;;;;;27.42;9.52;;;;;;;31.31;42.79;99741.94;4982196;28;20046;-80
2022/08/15 11:26:12;;;;;;;6.78;6.13;;;;;;;31.71;42.18;99741.66;5003152;28;20047;-79
2022/08/15 11:29:17;;;;;;;7.20;6.00;;;;;;;31.37;41.92;99746.66;5015536;28;20049;-80
2022/08/15 11:31:58;;;;;;;6.50;5.85;;;;;;;31.33;42.54;99748.03;4996623;28;20046;-80
2022/08/15 11:34:46;;;;;;;6.90;6.18;;;;;;;30.95;43.15;99744.50;4989176;28;20412;-79
2022/08/15 11:37:16;;;;;;;7.70;6.90;;;;;;;30.50;43.67;99739.91;4986911;28;20452;-79
2022/08/15 11:40:06;;;;;;;10.93;7.53;;;;;;;30.20;44.94;99741.66;4994172;28;20093;-78
2022/08/15 11:42:40;;;;;;;8.50;7.68;;;;;;;30.29;46.14;99735.13;4974223;28;20096;-79
2022/08/15 11:45:40;;;;;;;7.95;7.00;;;;;;;30.24;45.81;99732.94;4980810;28;20042;-81
2022/08/15 11:48:24;;;;;;;9.38;7.38;;;;;;;30.29;46.01;99735.13;4981197;28;20039;-79
2022/08/15 11:51:01;;;;;;;9.15;6.90;;;;;;;30.86;44.76;99731.09;4989909;28;20070;-80
2022/08/15 11:53:35;;;;;;;8.70;7.47;;;;;;;31.59;44.07;99725.72;4997395;28;20506;-79
2022/08/15 11:56:02;;;;;;;9.38;7.63;;;;;;;32.07;41.80;99730.75;4997952;28;20101;-81
2022/08/15 11:58:34;;;;;;;10.32;7.43;;;;;;;32.31;41.46;99724.97;4997210;28;20039;-78
2022/08/15 12:01:28;;;;;;;9.68;8.05;;;;;;;32.92;40.81;99721.75;4993550;28;20498;-78
2022/08/15 12:04:06;;;;;;;9.38;8.10;;;;;;;33.21;40.08;99715.19;4974562;28;20041;-78
2022/08/15 12:06:53;;;;;;;8.90;8.00;;;;;;;32.22;40.95;99718.75;4982611;28;20057;-78
2022/08/15 12:09:26;;;;;;;8.48;7.57;;;;;;;31.54;41.86;99724.63;4960847;28;21789;-79
2022/08/15 12:12:28;;;;;;;7.95;7.25;;;;;;;31.63;42.15;99718.00;4984865;28;20065;-77
2022/08/15 12:15:08;;;;;;;8.73;7.75;;;;;;;31.62;42.51;99717.16;4991181;28;20614;-77
2022/08/15 12:17:35;;;;;;;9.38;8.40;;;;;;;31.24;42.97;99716.41;4988213;28;20115;-77
2022/08/15 12:20:43;;;;;;;10.18;9.00;;;;;;;30.96;44.35;99720.78;5001937;28;20399;-77
2022/08/15 12:23:25;;;;;;;9.48;8.48;;;;;;;30.88;44.56;99719.00;5005357;28;20474;-78
2022/08/15 12:25:55;;;;;;;10.30;9.37;;;;;;;30.92;45.30;99719.47;4988398;28;20049;-78
2022/08/15 12:28:23;;;;;;;11.32;8.25;;;;;;;30.76;46.74;99732.22;4996299;28;20293;-78
2022/08/15 12:31:42;;;;;;;9.57;8.65;;;;;;;30.31;52.81;99745.84;4991685;28;20503;-78
2022/08/15 12:34:26;;;;;;;17.35;10.30;;;;;;;28.70;69.55;99763.28;4966670;28;20054;-79
2022/08/15 12:37:04;;;;;;;15.10;10.60;;;;;;;27.64;78.29;99773.81;4982686;28;20042;-79